sensor_id;sensor_type;location;lat;lon;timestamp;pressure;altitude;pressure_sealevel;temperature;humidity
67038;BME280;53940;53.204;6.590;2022-12-13T00:00:11;101175.91;;;21.72;45.35
67038;BME280;53940;53.204;6.590;2022-12-13T00:03:14;101178.72;;;21.70;45.67
67038;BME280;53940;53.204;6.590;2022-12-13T00:06:14;101187.63;;;21.71;45.71
67038;BME280;53940;53.204;6.590;2022-12-13T00:09:16;101179.59;;;21.71;45.54
67038;BME280;53940;53.204;6.590;2022-12-13T00:12:17;101172.50;;;21.70;45.56
67038;BME280;53940;53.204;6.590;2022-12-13T00:15:18;101176.91;;;21.71;45.67
67038;BME280;53940;53.204;6.590;2022-12-13T00:18:18;101170.66;;;21.70;45.23
67038;BME280;53940;53.204;6.590;2022-12-13T00:21:20;101169.94;;;21.68;45.37
67038;BME280;53940;53.204;6.590;2022-12-13T00:24:20;101177.13;;;21.67;45.39
67038;BME280;53940;53.204;6.590;2022-12-13T00:27:21;101173.59;;;21.67;45.31
67038;BME280;53940;53.204;6.590;2022-12-13T00:30:22;101167.38;;;21.66;45.36
67038;BME280;53940;53.204;6.590;2022-12-13T00:33:22;101171.91;;;21.66;45.10
67038;BME280;53940;53.204;6.590;2022-12-13T00:36:22;101166.53;;;21.66;45.03
67038;BME280;53940;53.204;6.590;2022-12-13T00:39:23;101164.00;;;21.64;45.02
67038;BME280;53940;53.204;6.590;2022-12-13T00:42:23;101167.66;;;21.63;44.81
67038;BME280;53940;53.204;6.590;2022-12-13T00:45:24;101164.97;;;21.63;45.18
67038;BME280;53940;53.204;6.590;2022-12-13T00:48:24;101163.28;;;21.62;45.16
67038;BME280;53940;53.204;6.590;2022-12-13T00:51:27;101164.28;;;21.61;44.97
67038;BME280;53940;53.204;6.590;2022-12-13T00:54:27;101156.22;;;21.61;45.06
67038;BME280;53940;53.204;6.590;2022-12-13T00:57:28;101157.22;;;21.60;44.62
67038;BME280;53940;53.204;6.590;2022-12-13T01:00:28;101157.22;;;21.60;44.55
67038;BME280;53940;53.204;6.590;2022-12-13T01:03:29;101155.53;;;21.59;44.93
67038;BME280;53940;53.204;6.590;2022-12-13T01:06:41;101163.56;;;21.59;44.69
67038;BME280;53940;53.204;6.590;2022-12-13T01:09:42;101155.66;;;21.58;44.63
67038;BME280;53940;53.204;6.590;2022-12-13T01:12:42;101152.09;;;21.57;44.35
67038;BME280;53940;53.204;6.590;2022-12-13T01:15:44;101152.97;;;21.58;44.63
67038;BME280;53940;53.204;6.590;2022-12-13T01:18:45;101156.66;;;21.57;44.58
67038;BME280;53940;53.204;6.590;2022-12-13T01:21:45;101150.41;;;21.56;44.42
67038;BME280;53940;53.204;6.590;2022-12-13T01:24:46;101149.44;;;21.57;44.33
67038;BME280;53940;53.204;6.590;2022-12-13T01:27:46;101143.25;;;21.57;44.41
67038;BME280;53940;53.204;6.590;2022-12-13T01:30:58;101145.78;;;21.58;44.37
67038;BME280;53940;53.204;6.590;2022-12-13T01:33:59;101150.16;;;21.59;44.22
67038;BME280;53940;53.204;6.590;2022-12-13T01:36:59;101151.84;;;21.60;44.39
67038;BME280;53940;53.204;6.590;2022-12-13T01:39:59;101151.84;;;21.60;44.48
67038;BME280;53940;53.204;6.590;2022-12-13T01:43:01;101151.72;;;21.62;44.19
67038;BME280;53940;53.204;6.590;2022-12-13T01:46:02;101147.19;;;21.62;44.41
67038;BME280;53940;53.204;6.590;2022-12-13T01:49:09;101156.91;;;21.63;44.37
67038;BME280;53940;53.204;6.590;2022-12-13T01:52:12;101154.97;;;21.65;44.57
67038;BME280;53940;53.204;6.590;2022-12-13T01:55:15;101156.66;;;21.66;44.68
67038;BME280;53940;53.204;6.590;2022-12-13T01:58:17;101156.66;;;21.66;44.54
67038;BME280;53940;53.204;6.590;2022-12-13T02:01:18;101155.66;;;21.67;44.51
67038;BME280;53940;53.204;6.590;2022-12-13T02:04:25;101152.97;;;21.67;44.63
67038;BME280;53940;53.204;6.590;2022-12-13T02:07:30;101167.13;;;21.70;44.50
67038;BME280;53940;53.204;6.590;2022-12-13T02:10:31;101160.91;;;21.69;44.78
67038;BME280;53940;53.204;6.590;2022-12-13T02:13:32;101162.63;;;21.70;44.76
67038;BME280;53940;53.204;6.590;2022-12-13T02:17:03;101151.91;;;21.70;44.85
67038;BME280;53940;53.204;6.590;2022-12-13T02:23:18;101139.19;;;21.72;44.83
67038;BME280;53940;53.204;6.590;2022-12-13T02:26:44;101138.34;;;21.72;44.91
67038;BME280;53940;53.204;6.590;2022-12-13T02:30:25;101134.69;;;21.73;44.91
67038;BME280;53940;53.204;6.590;2022-12-13T02:33:41;101134.69;;;21.73;45.08
67038;BME280;53940;53.204;6.590;2022-12-13T02:40:34;101125.63;;;21.74;44.89
67038;BME280;53940;53.204;6.590;2022-12-13T02:43:54;101119.41;;;21.73;45.05
67038;BME280;53940;53.204;6.590;2022-12-13T02:47:07;101117.59;;;21.74;44.82
67038;BME280;53940;53.204;6.590;2022-12-13T02:50:10;101118.59;;;21.73;45.09
67038;BME280;53940;53.204;6.590;2022-12-13T02:53:13;101117.59;;;21.74;44.75
67038;BME280;53940;53.204;6.590;2022-12-13T02:56:14;101120.28;;;21.74;44.65
67038;BME280;53940;53.204;6.590;2022-12-13T02:59:15;101126.50;;;21.74;45.11
67038;BME280;53940;53.204;6.590;2022-12-13T03:02:24;101118.59;;;21.73;44.89
67038;BME280;53940;53.204;6.590;2022-12-13T03:05:50;101114.91;;;21.74;45.09
67038;BME280;53940;53.204;6.590;2022-12-13T03:13:18;101113.22;;;21.73;45.09
67038;BME280;53940;53.204;6.590;2022-12-13T03:16:39;101117.72;;;21.72;44.78
67038;BME280;53940;53.204;6.590;2022-12-13T03:19:41;101115.91;;;21.73;45.11
67038;BME280;53940;53.204;6.590;2022-12-13T03:22:41;101120.41;;;21.72;45.02
67038;BME280;53940;53.204;6.590;2022-12-13T03:25:42;101122.25;;;21.72;45.06
67038;BME280;53940;53.204;6.590;2022-12-13T03:28:43;101115.19;;;21.71;44.83
67038;BME280;53940;53.204;6.590;2022-12-13T03:31:44;101116.03;;;21.71;45.02
67038;BME280;53940;53.204;6.590;2022-12-13T03:34:45;101108.97;;;21.70;44.91
67038;BME280;53940;53.204;6.590;2022-12-13T03:37:46;101117.88;;;21.71;44.96
67038;BME280;53940;53.204;6.590;2022-12-13T03:40:47;101120.56;;;21.71;44.97
67038;BME280;53940;53.204;6.590;2022-12-13T03:43:48;101113.47;;;21.70;44.91
67038;BME280;53940;53.204;6.590;2022-12-13T03:46:48;101111.75;;;21.68;45.11
67038;BME280;53940;53.204;6.590;2022-12-13T03:49:49;101109.06;;;21.68;45.10
67038;BME280;53940;53.204;6.590;2022-12-13T03:52:49;101115.31;;;21.69;45.17
67038;BME280;53940;53.204;6.590;2022-12-13T03:55:51;101113.63;;;21.68;45.01
67038;BME280;53940;53.204;6.590;2022-12-13T03:58:52;101107.38;;;21.67;45.30
67038;BME280;53940;53.204;6.590;2022-12-13T04:01:52;101110.06;;;21.67;45.05
67038;BME280;53940;53.204;6.590;2022-12-13T04:04:52;101100.34;;;21.66;44.86
67038;BME280;53940;53.204;6.590;2022-12-13T04:07:53;101103.16;;;21.65;45.35
67038;BME280;53940;53.204;6.590;2022-12-13T04:10:53;101098.78;;;21.64;45.31
67038;BME280;53940;53.204;6.590;2022-12-13T04:13:54;101090.72;;;21.64;45.15
67038;BME280;53940;53.204;6.590;2022-12-13T04:16:54;101093.53;;;21.62;44.95
67038;BME280;53940;53.204;6.590;2022-12-13T04:19:55;101090.03;;;21.62;45.04
67038;BME280;53940;53.204;6.590;2022-12-13T04:22:55;101092.72;;;21.62;45.13
67038;BME280;53940;53.204;6.590;2022-12-13T04:25:57;101088.31;;;21.61;45.16
67038;BME280;53940;53.204;6.590;2022-12-13T04:28:58;101090.16;;;21.60;45.04
67038;BME280;53940;53.204;6.590;2022-12-13T04:31:58;101088.47;;;21.59;45.14
67038;BME280;53940;53.204;6.590;2022-12-13T04:34:59;101091.16;;;21.59;44.99
67038;BME280;53940;53.204;6.590;2022-12-13T04:37:59;101085.94;;;21.58;44.92
67038;BME280;53940;53.204;6.590;2022-12-13T04:41:07;101094.09;;;21.56;45.26
67038;BME280;53940;53.204;6.590;2022-12-13T04:44:09;101080.69;;;21.56;45.08
67038;BME280;53940;53.204;6.590;2022-12-13T04:47:09;101080.69;;;21.56;45.16
67038;BME280;53940;53.204;6.590;2022-12-13T04:50:10;101064.03;;;21.52;45.14
67038;BME280;53940;53.204;6.590;2022-12-13T04:53:13;101062.34;;;21.51;45.33
67038;BME280;53940;53.204;6.590;2022-12-13T04:56:14;101061.50;;;21.51;45.14
67038;BME280;53940;53.204;6.590;2022-12-13T04:59:15;101064.16;;;21.51;45.04
67038;BME280;53940;53.204;6.590;2022-12-13T05:02:16;101062.47;;;21.50;44.98
67038;BME280;53940;53.204;6.590;2022-12-13T05:05:16;101063.47;;;21.49;45.11
67038;BME280;53940;53.204;6.590;2022-12-13T05:08:17;101067.97;;;21.48;45.23
67038;BME280;53940;53.204;6.590;2022-12-13T05:11:17;101060.09;;;21.47;45.41
67038;BME280;53940;53.204;6.590;2022-12-13T05:14:18;101060.94;;;21.47;45.04
67038;BME280;53940;53.204;6.590;2022-12-13T05:17:19;101058.41;;;21.46;45.30
67038;BME280;53940;53.204;6.590;2022-12-13T05:20:19;101052.19;;;21.45;45.41
67038;BME280;53940;53.204;6.590;2022-12-13T05:23:22;101054.00;;;21.45;45.28
67038;BME280;53940;53.204;6.590;2022-12-13T05:26:23;101054.00;;;21.45;45.50
67038;BME280;53940;53.204;6.590;2022-12-13T05:29:24;101052.31;;;21.44;45.34
67038;BME280;53940;53.204;6.590;2022-12-13T05:32:24;101050.63;;;21.43;45.21
67038;BME280;53940;53.204;6.590;2022-12-13T05:35:24;101050.63;;;21.43;45.29
67038;BME280;53940;53.204;6.590;2022-12-13T05:38:25;101049.75;;;21.42;45.24
67038;BME280;53940;53.204;6.590;2022-12-13T05:41:26;101044.56;;;21.40;45.31
67038;BME280;53940;53.204;6.590;2022-12-13T05:44:29;101042.72;;;21.41;45.33
67038;BME280;53940;53.204;6.590;2022-12-13T05:47:30;101045.41;;;21.41;45.35
67038;BME280;53940;53.204;6.590;2022-12-13T05:50:30;101049.94;;;21.40;45.31
67038;BME280;53940;53.204;6.590;2022-12-13T05:53:31;101047.25;;;21.40;45.39
67038;BME280;53940;53.204;6.590;2022-12-13T05:56:31;101049.94;;;21.40;45.45
67038;BME280;53940;53.204;6.590;2022-12-13T05:59:32;101051.63;;;21.41;45.30
67038;BME280;53940;53.204;6.590;2022-12-13T06:02:37;101047.25;;;21.40;45.54
67038;BME280;53940;53.204;6.590;2022-12-13T06:05:37;101045.41;;;21.41;45.36
67038;BME280;53940;53.204;6.590;2022-12-13T06:08:38;101056.97;;;21.41;45.27
67038;BME280;53940;53.204;6.590;2022-12-13T06:11:39;101052.63;;;21.40;45.24
67038;BME280;53940;53.204;6.590;2022-12-13T06:14:39;101057.81;;;21.42;45.32
67038;BME280;53940;53.204;6.590;2022-12-13T06:17:39;101050.63;;;21.43;45.21
67038;BME280;53940;53.204;6.590;2022-12-13T06:20:40;101053.31;;;21.43;45.09
67038;BME280;53940;53.204;6.590;2022-12-13T06:23:40;101053.19;;;21.44;45.14
67038;BME280;53940;53.204;6.590;2022-12-13T06:26:41;101057.53;;;21.45;45.12
67038;BME280;53940;53.204;6.590;2022-12-13T06:29:41;101058.41;;;21.46;45.34
67038;BME280;53940;53.204;6.590;2022-12-13T06:32:42;101060.22;;;21.45;45.09
67038;BME280;53940;53.204;6.590;2022-12-13T06:35:42;101054.72;;;21.47;45.38
67038;BME280;53940;53.204;6.590;2022-12-13T06:38:42;101055.56;;;21.47;45.47
67038;BME280;53940;53.204;6.590;2022-12-13T06:41:43;101059.09;;;21.48;45.38
67038;BME280;53940;53.204;6.590;2022-12-13T06:44:44;101052.88;;;21.47;45.11
67038;BME280;53940;53.204;6.590;2022-12-13T06:47:44;101057.25;;;21.48;45.45
67038;BME280;53940;53.204;6.590;2022-12-13T06:50:45;101060.78;;;21.49;45.32
67038;BME280;53940;53.204;6.590;2022-12-13T06:53:45;101065.16;;;21.50;45.57
67038;BME280;53940;53.204;6.590;2022-12-13T06:56:45;101064.16;;;21.51;45.32
67038;BME280;53940;53.204;6.590;2022-12-13T06:59:46;101060.53;;;21.52;45.50
67038;BME280;53940;53.204;6.590;2022-12-13T07:02:51;101063.34;;;21.50;45.45
67038;BME280;53940;53.204;6.590;2022-12-13T07:05:51;101066.84;;;21.51;45.55
67038;BME280;53940;53.204;6.590;2022-12-13T07:08:54;101073.66;;;21.55;45.42
67038;BME280;53940;53.204;6.590;2022-12-13T07:11:55;101067.41;;;21.54;45.51
67038;BME280;53940;53.204;6.590;2022-12-13T07:14:55;101063.78;;;21.56;45.66
67038;BME280;53940;53.204;6.590;2022-12-13T07:17:55;101071.66;;;21.57;45.65
67038;BME280;53940;53.204;6.590;2022-12-13T07:20:55;101068.84;;;21.59;45.52
67038;BME280;53940;53.204;6.590;2022-12-13T07:23:56;101066.16;;;21.59;45.60
67038;BME280;53940;53.204;6.590;2022-12-13T07:26:56;101064.34;;;21.59;45.73
67038;BME280;53940;53.204;6.590;2022-12-13T07:29:56;101060.66;;;21.60;45.53
67038;BME280;53940;53.204;6.590;2022-12-13T07:32:57;101066.03;;;21.60;45.82
67038;BME280;53940;53.204;6.590;2022-12-13T07:36:06;101067.72;;;21.61;45.51
67038;BME280;53940;53.204;6.590;2022-12-13T07:39:08;101071.25;;;21.62;45.55
67038;BME280;53940;53.204;6.590;2022-12-13T07:42:09;101070.41;;;21.61;45.38
67038;BME280;53940;53.204;6.590;2022-12-13T07:45:09;101069.41;;;21.62;45.73
67038;BME280;53940;53.204;6.590;2022-12-13T07:48:09;101072.09;;;21.62;45.67
67038;BME280;53940;53.204;6.590;2022-12-13T07:51:10;101073.78;;;21.63;45.46
67038;BME280;53940;53.204;6.590;2022-12-13T07:54:10;101083.53;;;21.64;45.63
67038;BME280;53940;53.204;6.590;2022-12-13T07:57:11;101082.69;;;21.64;45.30
67038;BME280;53940;53.204;6.590;2022-12-13T08:00:12;101080.13;;;21.62;45.57
67038;BME280;53940;53.204;6.590;2022-12-13T08:03:14;101083.69;;;21.63;45.52
67038;BME280;53940;53.204;6.590;2022-12-13T08:06:14;101087.34;;;21.62;45.20
67038;BME280;53940;53.204;6.590;2022-12-13T08:09:15;101086.50;;;21.61;45.48
67038;BME280;53940;53.204;6.590;2022-12-13T08:12:15;101088.47;;;21.59;45.62
67038;BME280;53940;53.204;6.590;2022-12-13T08:15:16;101091.16;;;21.59;45.32
67038;BME280;53940;53.204;6.590;2022-12-13T08:18:16;101088.75;;;21.56;45.34
67038;BME280;53940;53.204;6.590;2022-12-13T08:21:17;101090.59;;;21.56;45.37
67038;BME280;53940;53.204;6.590;2022-12-13T08:24:18;101088.03;;;21.54;45.24
67038;BME280;53940;53.204;6.590;2022-12-13T08:27:19;101089.03;;;21.53;45.31
67038;BME280;53940;53.204;6.590;2022-12-13T08:30:19;101093.66;;;21.51;45.43
67038;BME280;53940;53.204;6.590;2022-12-13T08:33:20;101086.63;;;21.50;45.52
67038;BME280;53940;53.204;6.590;2022-12-13T08:36:20;101100.03;;;21.50;45.31
67038;BME280;53940;53.204;6.590;2022-12-13T08:39:23;101102.69;;;21.50;45.37
67038;BME280;53940;53.204;6.590;2022-12-13T08:42:23;101110.88;;;21.48;45.42
67038;BME280;53940;53.204;6.590;2022-12-13T08:45:24;101110.06;;;21.48;45.44
67038;BME280;53940;53.204;6.590;2022-12-13T08:48:26;101111.75;;;21.49;45.41
67038;BME280;53940;53.204;6.590;2022-12-13T08:51:26;101118.94;;;21.48;45.83
67038;BME280;53940;53.204;6.590;2022-12-13T08:54:27;101116.41;;;21.47;45.77
67038;BME280;53940;53.204;6.590;2022-12-13T08:57:27;101113.72;;;21.47;45.71
67038;BME280;53940;53.204;6.590;2022-12-13T09:00:27;101126.13;;;21.48;45.47
67038;BME280;53940;53.204;6.590;2022-12-13T09:03:28;101130.63;;;21.47;45.67
67038;BME280;53940;53.204;6.590;2022-12-13T09:06:28;101124.44;;;21.47;45.81
67038;BME280;53940;53.204;6.590;2022-12-13T09:09:29;101126.13;;;21.48;45.38
67038;BME280;53940;53.204;6.590;2022-12-13T09:12:29;101115.41;;;21.48;45.71
67038;BME280;53940;53.204;6.590;2022-12-13T09:15:31;101116.25;;;21.48;45.68
67038;BME280;53940;53.204;6.590;2022-12-13T09:18:31;101122.47;;;21.49;45.47
67038;BME280;53940;53.204;6.590;2022-12-13T09:21:32;101130.50;;;21.49;45.58
67038;BME280;53940;53.204;6.590;2022-12-13T09:24:32;101133.19;;;21.49;45.46
67038;BME280;53940;53.204;6.590;2022-12-13T09:27:33;101132.34;;;21.48;45.20
67038;BME280;53940;53.204;6.590;2022-12-13T09:30:34;101132.19;;;21.50;45.60
67038;BME280;53940;53.204;6.590;2022-12-13T09:33:35;101130.38;;;21.50;45.37
67038;BME280;53940;53.204;6.590;2022-12-13T09:36:36;101131.22;;;21.51;45.64
67038;BME280;53940;53.204;6.590;2022-12-13T09:39:36;101129.53;;;21.50;45.44
67038;BME280;53940;53.204;6.590;2022-12-13T09:42:37;101121.47;;;21.50;45.38
67038;BME280;53940;53.204;6.590;2022-12-13T09:45:39;101128.53;;;21.51;45.36
67038;BME280;53940;53.204;6.590;2022-12-13T09:48:43;101127.56;;;21.52;45.36
67038;BME280;53940;53.204;6.590;2022-12-13T09:51:47;101124.03;;;21.51;45.59
67038;BME280;53940;53.204;6.590;2022-12-13T09:54:52;101112.44;;;21.51;45.47
67038;BME280;53940;53.204;6.590;2022-12-13T09:57:53;101115.97;;;21.51;45.47
67038;BME280;53940;53.204;6.590;2022-12-13T10:00:55;101116.84;;;21.52;45.59
67038;BME280;53940;53.204;6.590;2022-12-13T10:03:58;101110.63;;;21.51;45.42
67038;BME280;53940;53.204;6.590;2022-12-13T10:06:59;101106.13;;;21.52;45.42
67038;BME280;53940;53.204;6.590;2022-12-13T10:10:01;101104.41;;;21.51;45.65
67038;BME280;53940;53.204;6.590;2022-12-13T10:13:37;101100.59;;;21.53;45.42
67038;BME280;53940;53.204;6.590;2022-12-13T10:16:44;101084.66;;;21.52;45.63
67038;BME280;53940;53.204;6.590;2022-12-13T10:19:47;101087.34;;;21.52;45.31
67038;BME280;53940;53.204;6.590;2022-12-13T10:22:50;101084.38;;;21.55;45.54
67038;BME280;53940;53.204;6.590;2022-12-13T10:25:53;101079.88;;;21.56;45.37
67038;BME280;53940;53.204;6.590;2022-12-13T10:29:02;101072.66;;;21.56;45.54
67038;BME280;53940;53.204;6.590;2022-12-13T10:32:11;101077.03;;;21.57;45.44
67038;BME280;53940;53.204;6.590;2022-12-13T10:38:29;101069.72;;;21.59;45.48
67038;BME280;53940;53.204;6.590;2022-12-13T10:41:35;101064.34;;;21.59;45.55
67038;BME280;53940;53.204;6.590;2022-12-13T10:44:36;101061.50;;;21.61;45.30
67038;BME280;53940;53.204;6.590;2022-12-13T10:47:36;101059.53;;;21.63;45.57
67038;BME280;53940;53.204;6.590;2022-12-13T10:50:37;101059.41;;;21.64;45.53
67038;BME280;53940;53.204;6.590;2022-12-13T10:53:39;101062.91;;;21.65;45.45
67038;BME280;53940;53.204;6.590;2022-12-13T10:56:46;101066.94;;;21.71;45.69
67038;BME280;53940;53.204;6.590;2022-12-13T10:59:48;101066.91;;;21.90;45.53
67038;BME280;53940;53.204;6.590;2022-12-13T11:02:53;101060.06;;;22.26;44.97
67038;BME280;53940;53.204;6.590;2022-12-13T11:06:05;101052.94;;;22.64;44.43
67038;BME280;53940;53.204;6.590;2022-12-13T11:09:35;101043.38;;;23.08;43.19
67038;BME280;53940;53.204;6.590;2022-12-13T11:12:38;101041.97;;;23.50;42.94
67038;BME280;53940;53.204;6.590;2022-12-13T11:15:39;101041.19;;;23.94;42.51
67038;BME280;53940;53.204;6.590;2022-12-13T11:18:40;101028.72;;;24.38;41.81
67038;BME280;53940;53.204;6.590;2022-12-13T11:21:48;101030.91;;;24.77;40.58
67038;BME280;53940;53.204;6.590;2022-12-13T11:24:51;101027.50;;;25.10;40.29
67038;BME280;53940;53.204;6.590;2022-12-13T11:35:06;101018.00;;;25.74;38.00
67038;BME280;53940;53.204;6.590;2022-12-13T11:45:10;101008.84;;;25.50;38.78
67038;BME280;53940;53.204;6.590;2022-12-13T11:48:13;100998.66;;;25.02;38.92
67038;BME280;53940;53.204;6.590;2022-12-13T11:51:23;100993.81;;;24.71;39.61
67038;BME280;53940;53.204;6.590;2022-12-13T11:54:34;100994.88;;;24.43;40.42
67038;BME280;53940;53.204;6.590;2022-12-13T11:57:46;100988.53;;;24.18;40.70
67038;BME280;53940;53.204;6.590;2022-12-13T12:01:00;100984.84;;;24.01;41.12
67038;BME280;53940;53.204;6.590;2022-12-13T12:04:42;100989.28;;;23.83;41.48
67038;BME280;53940;53.204;6.590;2022-12-13T12:07:48;100989.53;;;23.72;41.82
67038;BME280;53940;53.204;6.590;2022-12-13T12:11:01;100990.50;;;23.63;42.17
67038;BME280;53940;53.204;6.590;2022-12-13T12:14:16;100994.78;;;23.55;41.16
67038;BME280;53940;53.204;6.590;2022-12-13T12:17:22;100982.13;;;23.48;41.76
67038;BME280;53940;53.204;6.590;2022-12-13T12:24:11;100975.28;;;23.35;41.96
67038;BME280;53940;53.204;6.590;2022-12-13T12:27:33;100978.41;;;23.31;42.73
67038;BME280;53940;53.204;6.590;2022-12-13T12:34:02;100973.47;;;23.26;43.58
67038;BME280;53940;53.204;6.590;2022-12-13T12:37:57;100971.94;;;23.23;44.07
67038;BME280;53940;53.204;6.590;2022-12-13T12:45:11;100964.50;;;23.17;44.11
67038;BME280;53940;53.204;6.590;2022-12-13T12:47:53;100967.50;;;23.14;44.03
67038;BME280;53940;53.204;6.590;2022-12-13T12:51:14;100966.09;;;23.10;44.28
67038;BME280;53940;53.204;6.590;2022-12-13T12:54:40;100961.06;;;23.07;44.46
67038;BME280;53940;53.204;6.590;2022-12-13T13:01:39;100960.81;;;23.00;44.58
67038;BME280;53940;53.204;6.590;2022-12-13T13:04:49;100955.72;;;22.97;44.27
67038;BME280;53940;53.204;6.590;2022-12-13T13:08:01;100959.59;;;22.94;44.63
67038;BME280;53940;53.204;6.590;2022-12-13T13:11:05;100959.88;;;22.91;44.65
67038;BME280;53940;53.204;6.590;2022-12-13T13:14:34;100958.34;;;22.88;44.89
67038;BME280;53940;53.204;6.590;2022-12-13T13:20:38;100967.00;;;22.82;44.74
67038;BME280;53940;53.204;6.590;2022-12-13T13:23:39;100967.13;;;22.81;44.80
67038;BME280;53940;53.204;6.590;2022-12-13T13:26:45;100956.72;;;22.78;45.01
67038;BME280;53940;53.204;6.590;2022-12-13T13:29:47;100966.78;;;22.75;44.90
67038;BME280;53940;53.204;6.590;2022-12-13T13:32:49;100966.06;;;22.73;44.98
67038;BME280;53940;53.204;6.590;2022-12-13T13:35:50;100963.38;;;22.73;45.01
67038;BME280;53940;53.204;6.590;2022-12-13T13:38:52;100968.06;;;22.71;45.20
